Time;durP1;ratioP1;P1;durP2;ratioP2;P2;SDS_P1;SDS_P2;PMS_P1;PMS_P2;Temp;Humidity;BMP_temperature;BMP_pressure;BME280_temperature;BME280_humidity;BME280_pressure;Samples;Min_cycle;Max_cycle;Signal;HPM_P1;HPM_P2
2023/05/21 00:02:00;;;;;;;5.13;3.15;;;;;;;15.81;72.46;101744.75;5284573;28;20062;-65
2023/05/21 00:04:32;;;;;;;4.45;3.13;;;;;;;15.73;74.35;101742.00;5286910;28;20035;-67
2023/05/21 00:07:03;;;;;;;6.13;3.55;;;;;;;15.81;73.25;101727.09;5287328;28;20020;-65
2023/05/21 00:09:37;;;;;;;7.13;3.15;;;;;;;15.70;75.02;101739.63;5283998;28;20029;-66
2023/05/21 00:12:08;;;;;;;4.43;3.08;;;;;;;15.75;74.54;101730.28;5286370;28;20025;-66
2023/05/21 00:14:39;;;;;;;6.55;3.17;;;;;;;15.68;75.26;101726.59;5290847;28;20032;-66
2023/05/21 00:17:11;;;;;;;6.03;3.13;;;;;;;15.73;75.52;101724.34;5286848;28;20017;-66
2023/05/21 00:19:43;;;;;;;5.25;2.90;;;;;;;15.69;75.41;101722.97;5288738;28;20075;-66
2023/05/21 00:22:14;;;;;;;5.38;3.45;;;;;;;15.65;75.72;101720.72;5286341;28;20016;-66
2023/05/21 00:24:46;;;;;;;4.53;3.42;;;;;;;15.59;76.96;101727.38;5284092;28;20119;-66
2023/05/21 00:27:17;;;;;;;7.90;4.20;;;;;;;15.54;77.13;101722.53;5289250;28;20415;-66
2023/05/21 00:29:48;;;;;;;9.70;6.13;;;;;;;15.56;77.34;101723.22;5289714;28;20799;-66
2023/05/21 00:32:20;;;;;;;8.85;7.95;;;;;;;15.49;78.37;101723.91;5283494;28;20416;-66
2023/05/21 00:34:51;;;;;;;9.75;8.07;;;;;;;15.46;78.11;101722.41;5286282;28;20405;-66
2023/05/21 00:37:23;;;;;;;9.40;6.93;;;;;;;15.52;77.92;101718.34;5285738;28;20058;-66
2023/05/21 00:39:54;;;;;;;8.40;7.20;;;;;;;15.53;76.67;101715.59;5284408;28;20023;-66
2023/05/21 00:42:26;;;;;;;7.80;5.60;;;;;;;15.47;79.31;101710.88;5291806;28;20476;-66
2023/05/21 00:44:58;;;;;;;6.43;5.57;;;;;;;15.39;80.37;101710.72;5280719;28;20507;-66
2023/05/21 00:47:29;;;;;;;6.55;4.75;;;;;;;15.33;80.03;101717.41;5280866;28;20046;-66
2023/05/21 00:50:02;;;;;;;6.25;4.60;;;;;;;15.32;80.88;101697.25;5282938;28;20035;-66
2023/05/21 00:52:40;;;;;;;5.25;3.78;;;;;;;15.26;80.71;101707.53;5291233;28;20040;-66
2023/05/21 00:55:12;;;;;;;5.45;3.60;;;;;;;15.33;78.96;101708.63;5280774;28;20029;-66
2023/05/21 00:57:44;;;;;;;4.47;3.80;;;;;;;15.35;79.99;101703.25;5286156;28;20069;-66
2023/05/21 01:00:16;;;;;;;5.97;3.60;;;;;;;15.34;78.47;101710.31;5284351;28;20103;-66
2023/05/21 01:02:48;;;;;;;5.60;3.45;;;;;;;15.24;80.22;101712.13;5281978;28;20036;-66
2023/05/21 01:05:21;;;;;;;5.50;3.70;;;;;;;15.24;82.12;101706.84;5270467;28;20025;-66
2023/05/21 01:07:52;;;;;;;6.32;3.92;;;;;;;15.15;82.36;101699.75;5282405;28;20034;-66
2023/05/21 01:10:25;;;;;;;5.05;3.35;;;;;;;15.15;83.10;101702.38;5289066;28;20310;-66
2023/05/21 01:12:58;;;;;;;10.32;3.80;;;;;;;15.11;83.96;101701.00;5272424;28;20060;-66
2023/05/21 01:15:29;;;;;;;5.07;3.55;;;;;;;15.10;83.80;101713.38;5287820;28;20024;-66
2023/05/21 01:18:01;;;;;;;4.88;3.40;;;;;;;15.03;84.50;101702.53;5290276;28;20024;-66
2023/05/21 01:20:32;;;;;;;5.57;3.63;;;;;;;14.97;85.66;101704.91;5286246;28;20032;-66
2023/05/21 01:23:04;;;;;;;5.40;3.63;;;;;;;14.91;86.18;101706.28;5289033;28;20016;-66
2023/05/21 01:25:35;;;;;;;4.30;3.70;;;;;;;14.83;87.33;101704.31;5291303;28;20032;-66
2023/05/21 01:28:06;;;;;;;5.05;3.40;;;;;;;14.73;87.51;101692.91;5285160;28;20027;-66
2023/05/21 01:30:39;;;;;;;4.95;4.07;;;;;;;14.76;88.13;101697.09;5288018;22;20048;-67
2023/05/21 01:33:19;;;;;;;9.45;4.00;;;;;;;14.90;87.19;101699.34;5272435;28;20044;-67
2023/05/21 01:35:59;;;;;;;4.60;3.28;;;;;;;14.82;88.90;101701.84;5277520;28;20033;-67
2023/05/21 01:38:42;;;;;;;4.88;3.78;;;;;;;14.91;87.85;101694.88;5276251;28;20024;-67
2023/05/21 01:41:17;;;;;;;4.82;3.47;;;;;;;14.75;89.05;101698.91;5276297;28;20033;-67
2023/05/21 01:43:50;;;;;;;5.32;3.75;;;;;;;14.59;90.58;101695.97;5275706;28;20028;-67
2023/05/21 01:46:25;;;;;;;4.43;3.30;;;;;;;14.66;91.45;101699.72;5276352;28;20550;-67
2023/05/21 01:48:57;;;;;;;5.82;4.00;;;;;;;14.61;90.53;101699.28;5275852;28;20038;-67
2023/05/21 01:51:29;;;;;;;9.85;4.35;;;;;;;14.56;91.06;101694.41;5276006;28;20032;-67
2023/05/21 01:54:00;;;;;;;4.63;4.00;;;;;;;14.60;91.46;101694.97;5275890;28;20481;-67
2023/05/21 01:56:32;;;;;;;5.57;3.72;;;;;;;14.68;90.37;101689.84;5276606;28;20059;-67
2023/05/21 01:59:04;;;;;;;5.60;3.40;;;;;;;14.57;92.09;101690.81;5274482;28;20381;-67
2023/05/21 02:01:35;;;;;;;4.72;3.40;;;;;;;14.59;91.65;101690.69;5275629;28;20044;-67
2023/05/21 02:04:06;;;;;;;7.32;4.47;;;;;;;14.65;90.11;101695.41;5277034;28;20031;-67
2023/05/21 02:06:38;;;;;;;5.03;3.58;;;;;;;14.60;92.56;101687.91;5276582;28;20075;-67
2023/05/21 02:09:09;;;;;;;3.92;3.10;;;;;;;14.65;91.90;101681.38;5276158;28;20020;-67
2023/05/21 02:11:40;;;;;;;4.57;3.25;;;;;;;14.62;92.32;101679.84;5275652;28;20488;-67
2023/05/21 02:14:12;;;;;;;4.65;3.70;;;;;;;14.62;92.70;101677.19;5274691;28;20081;-67
2023/05/21 02:16:44;;;;;;;5.15;3.55;;;;;;;14.69;92.88;101688.03;5274317;28;20032;-67
2023/05/21 02:19:15;;;;;;;5.88;3.53;;;;;;;14.72;92.00;101685.16;5275393;28;20027;-67
2023/05/21 02:21:46;;;;;;;5.35;3.70;;;;;;;14.78;92.29;101681.97;5274850;28;20029;-67
2023/05/21 02:24:18;;;;;;;4.60;3.70;;;;;;;14.78;93.26;101681.97;5277524;28;20511;-67
2023/05/21 02:26:50;;;;;;;5.35;3.70;;;;;;;14.68;92.36;101663.47;5275138;28;20033;-66
2023/05/21 02:29:21;;;;;;;5.18;3.80;;;;;;;14.79;92.32;101683.63;5276117;28;20048;-67
2023/05/21 02:31:52;;;;;;;5.35;3.70;;;;;;;14.75;92.87;101684.88;5274751;28;20072;-67
2023/05/21 02:34:24;;;;;;;4.82;3.63;;;;;;;14.71;93.19;101673.75;5277217;28;20086;-67
2023/05/21 02:36:57;;;;;;;4.22;3.42;;;;;;;14.79;92.26;101681.00;5274966;28;20024;-66
2023/05/21 02:39:28;;;;;;;4.97;3.60;;;;;;;14.80;94.10;101683.47;5273819;28;20035;-67
2023/05/21 02:42:00;;;;;;;7.13;4.00;;;;;;;14.86;93.43;101681.28;5273917;28;20028;-66
2023/05/21 02:44:31;;;;;;;5.45;4.13;;;;;;;14.84;92.96;101673.50;5275905;28;20545;-67
2023/05/21 02:47:02;;;;;;;7.53;3.78;;;;;;;14.82;94.07;101673.63;5275290;28;20023;-68
2023/05/21 02:49:33;;;;;;;5.93;3.72;;;;;;;14.84;94.29;101673.50;5275891;28;20039;-67
2023/05/21 02:52:05;;;;;;;4.93;3.70;;;;;;;14.89;93.98;101675.72;5274962;28;20035;-66
2023/05/21 02:54:36;;;;;;;4.22;3.47;;;;;;;14.86;94.34;101668.09;5275938;28;20032;-66
2023/05/21 02:57:07;;;;;;;6.28;3.67;;;;;;;14.90;93.75;101672.13;5273968;28;20086;-67
2023/05/21 02:59:39;;;;;;;6.57;4.05;;;;;;;14.86;94.24;101666.28;5275465;28;20032;-67
2023/05/21 03:02:10;;;;;;;7.50;4.13;;;;;;;14.81;94.96;101663.22;5272959;28;20028;-67
2023/05/21 03:04:45;;;;;;;4.85;3.88;;;;;;;14.89;95.04;101657.25;5275804;28;20034;-67
2023/05/21 03:07:19;;;;;;;5.57;4.10;;;;;;;14.83;95.53;101659.47;5273491;28;20143;-67
2023/05/21 03:09:50;;;;;;;4.20;3.47;;;;;;;14.86;94.83;101660.19;5274185;28;20032;-67
2023/05/21 03:12:22;;;;;;;6.00;3.80;;;;;;;14.84;95.38;101661.13;5273924;28;20025;-67
2023/05/21 03:14:55;;;;;;;6.35;4.15;;;;;;;14.80;96.04;101659.75;5272998;28;20530;-67
2023/05/21 03:17:26;;;;;;;6.25;4.55;;;;;;;14.77;96.74;101646.84;5274040;28;20068;-67
2023/05/21 03:19:57;;;;;;;4.25;3.85;;;;;;;14.73;97.11;101648.06;5273697;28;20083;-67
2023/05/21 03:22:28;;;;;;;5.05;4.00;;;;;;;14.69;97.64;101646.69;5276082;28;20566;-67
2023/05/21 03:25:03;;;;;;;5.82;4.10;;;;;;;14.67;97.37;101650.44;5272248;28;20074;-67
2023/05/21 03:27:34;;;;;;;7.80;3.88;;;;;;;14.66;98.49;101646.97;5275894;28;20024;-67
2023/05/21 03:30:06;;;;;;;5.43;3.85;;;;;;;14.58;99.59;101647.66;5274492;28;20574;-67
2023/05/21 03:32:40;;;;;;;6.93;3.95;;;;;;;14.56;99.34;101643.47;5272974;28;20033;-67
2023/05/21 03:35:11;;;;;;;5.15;3.78;;;;;;;14.64;99.41;101655.97;5278991;28;20382;-67
2023/05/21 03:37:42;;;;;;;6.45;3.80;;;;;;;14.60;100.00;101656.25;5278827;28;20028;-67
2023/05/21 03:40:13;;;;;;;6.07;3.90;;;;;;;14.50;100.00;101644.00;5278860;28;20024;-67
2023/05/21 03:42:45;;;;;;;5.13;4.10;;;;;;;14.64;100.00;101656.81;5278764;28;20029;-67
2023/05/21 03:45:16;;;;;;;6.78;4.20;;;;;;;14.63;100.00;101657.78;5279512;28;20400;-67
2023/05/21 03:47:48;;;;;;;5.38;3.67;;;;;;;14.63;100.00;101649.06;5278206;28;20403;-67
2023/05/21 03:50:19;;;;;;;6.45;3.75;;;;;;;14.63;100.00;101641.97;5276038;28;20398;-67
2023/05/21 03:52:50;;;;;;;5.57;3.97;;;;;;;14.68;100.00;101650.28;5278267;28;20051;-67
2023/05/21 03:55:21;;;;;;;6.57;3.90;;;;;;;14.70;100.00;101648.38;5278847;28;20024;-67
2023/05/21 03:57:53;;;;;;;5.80;4.07;;;;;;;14.66;100.00;101635.56;5279156;28;20020;-67
2023/05/21 04:00:24;;;;;;;6.72;3.67;;;;;;;14.70;100.00;101635.19;5278621;28;20367;-67
2023/05/21 04:02:55;;;;;;;6.22;4.05;;;;;;;14.73;100.00;101648.06;5278687;28;20081;-67
2023/05/21 04:05:27;;;;;;;4.63;4.13;;;;;;;14.61;100.00;101630.72;5276623;28;20036;-67
2023/05/21 04:07:59;;;;;;;5.25;3.85;;;;;;;14.75;100.00;101653.22;5277650;28;20481;-67
2023/05/21 04:10:30;;;;;;;6.32;4.38;;;;;;;14.69;100.00;101649.31;5277574;28;20473;-67
2023/05/21 04:13:01;;;;;;;8.10;4.63;;;;;;;14.74;100.00;101657.66;5278010;28;20025;-66
2023/05/21 04:15:34;;;;;;;5.68;3.90;;;;;;;14.78;100.00;101650.31;5278588;28;20033;-67
2023/05/21 04:18:06;;;;;;;6.55;3.90;;;;;;;14.80;100.00;101645.72;5278426;28;20105;-67
2023/05/21 04:20:37;;;;;;;5.28;3.90;;;;;;;14.77;100.00;101640.72;5278145;28;20020;-67
2023/05/21 04:23:09;;;;;;;6.00;4.20;;;;;;;14.80;100.00;101645.72;5276486;28;20123;-66
2023/05/21 04:25:40;;;;;;;6.18;4.25;;;;;;;14.77;100.00;101652.13;5277154;28;20036;-67
2023/05/21 04:28:11;;;;;;;5.07;4.05;;;;;;;14.79;100.00;101654.63;5277322;28;20108;-67
2023/05/21 04:30:42;;;;;;;4.75;3.72;;;;;;;14.79;100.00;101658.09;5275418;28;20144;-67
2023/05/21 04:33:16;;;;;;;8.50;4.40;;;;;;;14.81;100.00;101655.28;5277540;28;20016;-67
2023/05/21 04:35:50;;;;;;;5.53;4.20;;;;;;;14.79;100.00;101655.44;5278301;28;20020;-66
2023/05/21 04:38:21;;;;;;;5.32;4.50;;;;;;;14.80;100.00;101651.81;5277236;28;20032;-67
2023/05/21 04:40:52;;;;;;;5.80;4.70;;;;;;;14.82;100.00;101652.53;5275513;28;20079;-67
2023/05/21 04:43:25;;;;;;;5.63;4.57;;;;;;;14.82;100.00;101657.81;5277063;28;20037;-67
2023/05/21 04:45:56;;;;;;;7.28;4.75;;;;;;;14.81;100.00;101657.94;5277768;28;20025;-67
2023/05/21 04:48:27;;;;;;;6.35;4.75;;;;;;;14.83;100.00;101656.00;5277503;28;20032;-68
2023/05/21 04:50:59;;;;;;;5.18;4.68;;;;;;;14.80;100.00;101658.91;5276254;28;20075;-67
2023/05/21 04:53:30;;;;;;;6.85;4.80;;;;;;;14.85;100.00;101654.06;5278591;28;20033;-67
2023/05/21 04:56:01;;;;;;;6.65;5.22;;;;;;;14.94;100.00;101657.69;5278060;28;20024;-67
2023/05/21 04:58:33;;;;;;;6.57;4.95;;;;;;;14.86;100.00;101663.66;5277187;28;20032;-67
2023/05/21 05:01:04;;;;;;;5.93;4.80;;;;;;;14.92;100.00;101664.88;5278272;28;20027;-67
2023/05/21 05:03:35;;;;;;;5.93;4.80;;;;;;;14.97;100.00;101660.88;5278130;28;20035;-67
2023/05/21 05:06:07;;;;;;;5.70;4.35;;;;;;;15.03;100.00;101672.66;5276920;28;20118;-67
2023/05/21 05:08:38;;;;;;;5.75;4.75;;;;;;;14.94;100.00;101663.78;5276325;28;20032;-66
2023/05/21 05:11:09;;;;;;;6.97;5.18;;;;;;;15.01;100.00;101666.72;5277920;28;20033;-67
2023/05/21 05:13:41;;;;;;;6.38;4.78;;;;;;;15.07;100.00;101666.97;5273368;28;20032;-67
2023/05/21 05:16:16;;;;;;;5.28;4.70;;;;;;;15.03;100.00;101659.47;5275087;28;20028;-67
2023/05/21 05:18:47;;;;;;;7.80;5.53;;;;;;;15.02;100.00;101649.91;5276911;28;20036;-67
2023/05/21 05:21:21;;;;;;;5.70;5.10;;;;;;;15.09;100.00;101661.56;5277628;28;20027;-67
2023/05/21 05:23:52;;;;;;;5.97;5.15;;;;;;;15.08;100.00;101657.28;5275958;28;20028;-67
2023/05/21 05:26:24;;;;;;;5.95;4.82;;;;;;;15.13;100.00;101657.66;5277779;28;20040;-67
2023/05/21 05:28:55;;;;;;;6.00;5.22;;;;;;;15.18;100.00;101655.44;5276601;28;20522;-67
2023/05/21 05:31:26;;;;;;;6.82;5.10;;;;;;;15.21;100.00;101655.16;5274283;28;20116;-67
2023/05/21 05:33:58;;;;;;;7.10;5.05;;;;;;;15.26;100.00;101655.56;5276465;28;20028;-67
2023/05/21 05:36:30;;;;;;;6.57;5.18;;;;;;;15.31;100.00;101655.16;5276148;28;20029;-67
2023/05/21 05:39:01;;;;;;;5.53;5.03;;;;;;;15.36;100.00;101663.47;5277175;28;20032;-67
2023/05/21 05:41:32;;;;;;;8.02;5.82;;;;;;;15.35;100.00;101658.34;5276090;28;20082;-67
2023/05/21 05:44:04;;;;;;;6.07;5.32;;;;;;;15.40;100.00;101658.75;5276905;28;20032;-67
2023/05/21 05:46:35;;;;;;;6.10;5.50;;;;;;;15.44;100.00;101657.50;5275086;28;20024;-67
2023/05/21 05:49:06;;;;;;;8.88;6.40;;;;;;;15.44;100.00;101660.13;5276377;28;20024;-68
2023/05/21 05:51:38;;;;;;;7.90;5.97;;;;;;;15.49;100.00;101660.53;5276878;28;20028;-67
2023/05/21 05:54:09;;;;;;;7.70;6.00;;;;;;;15.62;100.00;101654.97;5277314;28;20016;-67
2023/05/21 05:56:40;;;;;;;5.80;5.20;;;;;;;15.59;100.00;101658.72;5275728;28;20170;-67
2023/05/21 05:59:12;;;;;;;7.97;5.78;;;;;;;15.70;100.00;101650.66;5276286;28;20032;-67
2023/05/21 06:01:43;;;;;;;6.60;5.75;;;;;;;15.74;100.00;101659.13;5275806;28;20397;-67
2023/05/21 06:04:14;;;;;;;8.40;5.60;;;;;;;15.77;100.00;101664.13;5274481;28;20385;-67
2023/05/21 06:06:47;;;;;;;7.30;6.45;;;;;;;15.84;100.00;101665.22;5276303;28;20181;-67
2023/05/21 06:09:18;;;;;;;11.30;5.72;;;;;;;15.86;100.00;101657.13;5274682;28;20036;-67
2023/05/21 06:11:49;;;;;;;7.20;5.85;;;;;;;15.93;99.42;101660.88;5273511;28;20077;-67
2023/05/21 06:14:20;;;;;;;6.40;5.55;;;;;;;15.98;98.85;101658.59;5272035;28;20044;-67
2023/05/21 06:16:52;;;;;;;7.30;6.40;;;;;;;16.08;100.00;101656.75;5274989;28;20016;-67
2023/05/21 06:19:23;;;;;;;7.57;6.13;;;;;;;16.21;100.00;101654.63;5271595;28;20066;-67
2023/05/21 06:21:54;;;;;;;7.93;6.13;;;;;;;16.23;98.53;101660.59;5273473;28;20036;-67
2023/05/21 06:24:25;;;;;;;7.57;6.57;;;;;;;16.32;98.18;101665.97;5275264;28;20082;-67
2023/05/21 06:26:57;;;;;;;7.97;6.63;;;;;;;16.48;97.66;101660.88;5272404;28;20031;-67
2023/05/21 06:29:28;;;;;;;9.20;5.95;;;;;;;16.57;96.71;101656.50;5273466;28;20044;-67
2023/05/21 06:32:00;;;;;;;10.95;6.50;;;;;;;16.55;96.36;101661.91;5275386;28;20079;-67
2023/05/21 06:34:31;;;;;;;7.55;5.93;;;;;;;16.65;95.17;101665.34;5273446;28;20456;-67
2023/05/21 06:37:03;;;;;;;10.00;6.00;;;;;;;16.74;94.57;101667.13;5276712;28;20028;-67
2023/05/21 06:39:34;;;;;;;9.57;5.90;;;;;;;16.83;95.02;101665.41;5275410;28;20047;-68
2023/05/21 06:42:05;;;;;;;7.93;5.93;;;;;;;16.92;93.48;101648.59;5274727;28;20031;-67
2023/05/21 06:44:38;;;;;;;7.63;5.88;;;;;;;16.95;93.56;101653.59;5275745;28;20052;-67
2023/05/21 06:47:09;;;;;;;7.88;6.40;;;;;;;17.03;94.92;101655.47;5271800;28;20028;-67
2023/05/21 06:49:40;;;;;;;7.03;5.78;;;;;;;17.15;94.13;101654.25;5272965;28;20029;-67
2023/05/21 06:52:11;;;;;;;8.57;5.95;;;;;;;17.23;92.37;101654.31;5276345;28;20021;-67
2023/05/21 06:54:43;;;;;;;7.88;5.78;;;;;;;17.40;91.42;101649.16;5275324;28;20025;-67
2023/05/21 06:57:15;;;;;;;7.45;5.85;;;;;;;17.42;91.42;101652.47;5273544;28;20075;-68
2023/05/21 06:59:46;;;;;;;8.93;5.53;;;;;;;17.48;90.13;101644.72;5274726;28;20036;-68
2023/05/21 07:02:17;;;;;;;8.17;6.23;;;;;;;17.77;90.27;101648.91;5272784;28;20074;-68
2023/05/21 07:04:48;;;;;;;6.90;5.57;;;;;;;17.78;85.54;101645.28;5272684;28;20298;-67
2023/05/21 07:07:20;;;;;;;7.88;6.50;;;;;;;17.75;85.13;101625.19;5274388;28;20017;-69
2023/05/21 07:09:51;;;;;;;8.65;6.50;;;;;;;17.87;86.56;101633.72;5275366;28;20035;-68
2023/05/21 07:12:22;;;;;;;7.05;6.07;;;;;;;18.05;85.53;101630.97;5274733;28;20020;-67
2023/05/21 07:14:53;;;;;;;6.33;5.70;;;;;;;18.20;84.56;101626.72;5275019;28;20028;-67
2023/05/21 07:17:25;;;;;;;7.93;5.77;;;;;;;18.34;81.89;101627.94;5272382;28;20299;-67
2023/05/21 07:19:56;;;;;;;7.88;5.97;;;;;;;18.42;82.20;101619.16;5273414;28;20282;-67
2023/05/21 07:22:27;;;;;;;7.80;6.43;;;;;;;18.57;79.88;101629.97;5274508;28;20550;-67
2023/05/21 07:24:58;;;;;;;12.20;6.00;;;;;;;18.63;79.57;101632.78;5273945;28;20122;-67
2023/05/21 07:27:30;;;;;;;7.80;6.22;;;;;;;18.71;79.65;101627.53;5275366;28;20028;-67
2023/05/21 07:30:02;;;;;;;6.78;6.07;;;;;;;18.68;79.39;101627.00;5271310;28;20207;-67
2023/05/21 07:32:33;;;;;;;8.50;7.00;;;;;;;18.84;78.69;101632.34;5274213;28;20067;-67
2023/05/21 07:35:05;;;;;;;7.40;6.03;;;;;;;18.83;78.60;101629.88;5271977;28;20020;-67
2023/05/21 07:37:36;;;;;;;7.47;6.27;;;;;;;18.89;77.02;101616.75;5272150;28;20067;-67
2023/05/21 07:40:08;;;;;;;8.25;6.28;;;;;;;19.15;77.35;101627.19;5271523;28;20099;-67
2023/05/21 07:42:40;;;;;;;7.23;6.03;;;;;;;19.09;77.20;101632.34;5271171;28;20118;-67
2023/05/21 07:45:11;;;;;;;7.40;6.55;;;;;;;19.15;76.11;101629.03;5273128;28;20060;-67
2023/05/21 07:47:44;;;;;;;7.00;6.10;;;;;;;19.20;76.15;101632.81;5274010;28;20031;-67
2023/05/21 07:50:16;;;;;;;8.20;6.50;;;;;;;19.42;75.66;101630.47;5272626;28;20419;-67
2023/05/21 07:52:47;;;;;;;6.63;5.97;;;;;;;19.48;72.89;101629.81;5272391;28;20031;-67
2023/05/21 07:55:18;;;;;;;8.43;6.20;;;;;;;19.56;73.18;101626.31;5273632;28;20059;-67
2023/05/21 07:57:51;;;;;;;9.07;7.05;;;;;;;19.82;75.64;101632.25;5273520;28;20035;-68
2023/05/21 08:00:23;;;;;;;7.00;5.90;;;;;;;19.85;74.52;101631.06;5273130;28;20025;-68
2023/05/21 08:02:54;;;;;;;7.90;6.38;;;;;;;20.01;73.25;101625.69;5272849;28;20028;-67
2023/05/21 08:05:26;;;;;;;7.43;6.47;;;;;;;20.08;73.05;101631.16;5273708;28;20024;-67
2023/05/21 08:07:57;;;;;;;7.82;6.20;;;;;;;20.24;73.39;101632.91;5273920;28;20447;-68
2023/05/21 08:10:28;;;;;;;8.90;6.50;;;;;;;20.24;69.94;101633.72;5271498;28;20029;-67
2023/05/21 08:12:59;;;;;;;16.90;6.63;;;;;;;20.25;69.37;101627.38;5273369;28;20025;-68
2023/05/21 08:15:31;;;;;;;9.03;6.33;;;;;;;20.37;68.88;101625.16;5272662;28;20028;-67
2023/05/21 08:18:03;;;;;;;7.87;6.53;;;;;;;20.48;69.88;101619.44;5272135;28;20060;-68
2023/05/21 08:20:34;;;;;;;11.37;7.20;;;;;;;20.41;68.71;101632.59;5276405;28;20036;-67
2023/05/21 08:23:05;;;;;;;8.63;6.03;;;;;;;20.40;68.29;101630.13;5274050;28;20036;-68
2023/05/21 08:25:37;;;;;;;7.47;6.77;;;;;;;20.51;70.29;101624.44;5276942;28;20155;-67
2023/05/21 08:28:08;;;;;;;7.57;6.80;;;;;;;20.61;67.74;101633.03;5275568;28;20034;-67
2023/05/21 08:30:40;;;;;;;7.97;7.18;;;;;;;20.68;70.05;101627.81;5276023;28;20049;-68
2023/05/21 08:33:11;;;;;;;9.30;7.13;;;;;;;20.59;67.84;101608.41;5275572;28;20023;-68
2023/05/21 08:35:42;;;;;;;7.67;6.83;;;;;;;20.58;67.00;101606.75;5276474;28;20029;-67
2023/05/21 08:38:15;;;;;;;9.80;6.60;;;;;;;20.83;67.82;101607.38;5277428;28;20107;-68
2023/05/21 08:40:50;;;;;;;9.02;7.15;;;;;;;20.98;67.20;101603.94;5276685;28;20059;-68
2023/05/21 08:43:22;;;;;;;7.80;7.05;;;;;;;21.19;65.06;101606.75;5275514;28;20078;-68
2023/05/21 08:45:56;;;;;;;8.45;6.75;;;;;;;21.45;67.30;101608.19;5277647;28;20033;-68
2023/05/21 08:48:29;;;;;;;8.00;7.20;;;;;;;21.27;64.33;101608.50;5276381;28;20111;-67
2023/05/21 08:51:00;;;;;;;7.13;6.43;;;;;;;21.54;65.62;101602.56;5275419;28;20032;-68
2023/05/21 08:53:33;;;;;;;10.90;7.30;;;;;;;21.62;63.29;101599.00;5274888;28;20089;-68
2023/05/21 08:56:05;;;;;;;10.15;6.93;;;;;;;21.53;64.39;101592.09;5273906;28;20493;-68
2023/05/21 08:58:39;;;;;;;9.50;6.88;;;;;;;21.82;63.20;101600.09;5274886;28;20037;-68
2023/05/21 09:01:11;;;;;;;9.68;7.72;;;;;;;21.85;60.50;101585.53;5276265;28;20081;-68
2023/05/21 09:03:42;;;;;;;8.23;7.20;;;;;;;22.02;62.79;101595.00;5276736;28;20028;-68
2023/05/21 09:06:13;;;;;;;10.30;7.87;;;;;;;22.08;59.95;101599.56;5277175;28;20031;-68
2023/05/21 09:08:52;;;;;;;9.50;8.13;;;;;;;22.26;60.19;101601.88;5275671;28;20068;-68
2023/05/21 09:11:25;;;;;;;8.48;7.68;;;;;;;22.14;59.68;101597.22;5274403;28;20036;-68
2023/05/21 09:13:58;;;;;;;8.02;7.25;;;;;;;22.52;60.61;101600.50;5275860;28;20431;-68
2023/05/21 09:16:30;;;;;;;8.10;7.28;;;;;;;22.32;59.08;101601.13;5274172;28;20477;-68
2023/05/21 09:19:01;;;;;;;8.17;7.30;;;;;;;22.18;58.12;101598.50;5276158;28;20028;-68
2023/05/21 09:21:33;;;;;;;8.00;6.83;;;;;;;22.19;59.55;101606.28;5276164;28;20435;-68
2023/05/21 09:24:05;;;;;;;8.20;7.40;;;;;;;22.33;59.26;101601.94;5275932;28;20136;-68
2023/05/21 09:26:36;;;;;;;7.65;6.95;;;;;;;22.50;60.38;101610.53;5276422;28;20034;-68
2023/05/21 09:29:07;;;;;;;9.30;7.33;;;;;;;22.41;60.14;101612.50;5275934;28;20059;-68
2023/05/21 09:31:43;;;;;;;8.00;6.97;;;;;;;22.53;59.54;101605.63;5272534;28;20119;-68
2023/05/21 09:34:15;;;;;;;9.10;6.50;;;;;;;22.55;60.71;101605.47;5276247;28;20032;-68
2023/05/21 09:36:48;;;;;;;8.37;7.17;;;;;;;22.56;58.90;101607.94;5275175;28;20032;-68
2023/05/21 09:39:32;;;;;;;8.35;7.43;;;;;;;22.66;58.54;101599.63;5274880;28;20140;-68
2023/05/21 09:42:03;;;;;;;10.02;7.50;;;;;;;22.46;58.88;101599.41;5274515;28;20094;-68
2023/05/21 09:44:34;;;;;;;9.20;7.83;;;;;;;22.47;58.71;101603.75;5275762;28;20115;-68
2023/05/21 09:47:08;;;;;;;9.00;7.77;;;;;;;22.52;57.76;101584.47;5276462;28;20552;-68
2023/05/21 09:49:42;;;;;;;9.57;7.90;;;;;;;22.85;59.14;101586.63;5270763;28;20054;-68
2023/05/21 09:52:22;;;;;;;8.18;7.05;;;;;;;22.98;58.89;101590.25;5275233;28;20191;-68
2023/05/21 09:54:53;;;;;;;11.73;7.97;;;;;;;22.84;58.82;101593.78;5275683;28;20436;-68
2023/05/21 09:57:25;;;;;;;9.10;7.70;;;;;;;23.04;58.00;101594.81;5276189;28;20052;-67
2023/05/21 09:59:56;;;;;;;10.68;8.20;;;;;;;23.12;59.74;101591.19;5275500;28;20023;-67
2023/05/21 10:02:30;;;;;;;7.77;6.87;;;;;;;23.08;56.81;101587.25;5275319;28;20028;-68
2023/05/21 10:05:07;;;;;;;8.45;7.55;;;;;;;23.23;58.56;101587.16;5274422;28;20032;-67
2023/05/21 10:07:41;;;;;;;9.38;6.88;;;;;;;23.31;56.96;101578.97;5274000;28;20015;-68
2023/05/21 10:10:13;;;;;;;8.55;7.47;;;;;;;23.21;58.47;101579.31;5273874;28;20033;-68
2023/05/21 10:12:47;;;;;;;9.10;7.72;;;;;;;23.29;58.06;101571.13;5275565;28;20028;-67
2023/05/21 10:15:22;;;;;;;8.25;7.47;;;;;;;23.52;56.99;101573.53;5276640;28;20044;-67
2023/05/21 10:17:55;;;;;;;10.50;8.25;;;;;;;23.46;56.48;101566.31;5273485;28;20067;-67
2023/05/21 10:20:26;;;;;;;9.73;7.63;;;;;;;23.49;56.63;101568.59;5273735;28;20757;-67
2023/05/21 10:22:58;;;;;;;10.20;9.30;;;;;;;23.46;56.85;101555.59;5273862;28;20031;-67
2023/05/21 10:25:31;;;;;;;11.52;8.32;;;;;;;23.51;55.88;101563.84;5274608;28;20143;-68
2023/05/21 10:28:03;;;;;;;10.32;8.18;;;;;;;23.65;56.04;101564.75;5274814;28;20562;-67
2023/05/21 10:30:35;;;;;;;10.15;8.18;;;;;;;23.74;54.94;101552.03;5274953;28;20063;-67
2023/05/21 10:33:07;;;;;;;10.23;8.05;;;;;;;23.80;53.58;101564.63;5271415;28;20452;-67
2023/05/21 10:35:39;;;;;;;11.67;8.53;;;;;;;24.03;54.64;101562.44;5267508;28;20040;-68
2023/05/21 10:38:12;;;;;;;8.77;7.88;;;;;;;24.14;54.95;101544.16;5273406;28;20485;-68
2023/05/21 10:40:43;;;;;;;10.27;8.23;;;;;;;24.25;54.63;101544.38;5274152;28;20056;-68
2023/05/21 10:43:57;;;;;;;8.83;7.90;;;;;;;24.79;54.86;101558.66;5271356;28;20158;-68
2023/05/21 10:46:53;;;;;;;12.48;8.75;;;;;;;24.91;53.10;101548.13;5251802;28;20579;-68
2023/05/21 10:49:43;;;;;;;9.05;8.10;;;;;;;24.66;51.68;101542.56;5272688;28;20047;-68
2023/05/21 10:52:33;;;;;;;9.68;8.68;;;;;;;24.93;51.34;101540.72;5274282;28;20032;-67
2023/05/21 10:55:28;;;;;;;10.23;8.95;;;;;;;25.06;51.81;101537.19;5273495;28;20016;-68
2023/05/21 10:58:24;;;;;;;10.32;9.00;;;;;;;25.20;52.01;101523.56;5273084;28;20033;-68
2023/05/21 11:00:57;;;;;;;9.35;7.78;;;;;;;25.07;50.67;101514.69;5274709;28;20412;-69
2023/05/21 11:03:30;;;;;;;8.85;7.95;;;;;;;25.02;49.92;101517.19;5275087;28;20028;-68
2023/05/21 11:06:05;;;;;;;10.15;8.63;;;;;;;25.09;51.63;101520.69;5274363;28;20024;-69
2023/05/21 11:08:37;;;;;;;9.85;8.55;;;;;;;25.30;51.77;101520.44;5272384;28;20608;-69
2023/05/21 11:11:08;;;;;;;;;;;;;;;26.37;49.67;101518.06;5275701;28;20032;-73
2023/05/21 11:13:49;;;;;;;9.60;8.27;;;;;;;25.80;50.22;101507.28;5273673;28;20426;-69
2023/05/21 11:16:24;;;;;;;9.85;7.85;;;;;;;25.77;49.27;101510.34;5274655;28;20678;-68
2023/05/21 11:18:56;;;;;;;9.95;8.75;;;;;;;25.79;48.33;101507.47;5274829;28;20025;-69
2023/05/21 11:21:29;;;;;;;10.55;8.70;;;;;;;25.61;48.95;101492.03;5274839;28;20500;-69
2023/05/21 11:24:03;;;;;;;10.13;8.65;;;;;;;25.45;48.39;101496.84;5274457;28;20048;-69
2023/05/21 11:26:47;;;;;;;10.27;9.13;;;;;;;25.66;50.12;101490.38;5273688;28;20124;-68
2023/05/21 11:29:18;;;;;;;12.55;9.23;;;;;;;25.54;50.97;101489.41;5272482;28;20532;-68
2023/05/21 11:32:01;;;;;;;11.75;9.18;;;;;;;25.89;50.31;101473.75;5272536;28;20033;-68
2023/05/21 11:34:39;;;;;;;;;;;;;;;26.65;47.47;101480.00;5274753;28;20680;-69
2023/05/21 11:37:17;;;;;;;10.98;8.52;;;;;;;25.96;48.32;101479.91;5274869;28;19920;-69
2023/05/21 11:39:49;;;;;;;10.50;9.38;;;;;;;26.02;50.00;101480.06;5274050;28;20109;-68
2023/05/21 11:42:31;;;;;;;10.80;9.70;;;;;;;26.28;47.77;101474.50;5273137;28;20052;-69
2023/05/21 11:45:04;;;;;;;10.63;9.60;;;;;;;26.16;49.37;101476.25;5273931;28;20029;-68
2023/05/21 11:47:35;;;;;;;10.93;9.82;;;;;;;26.15;46.85;101478.13;5274055;28;20085;-68